createdAt,value
2022-10-12T00:00:56.863Z,2.30
2022-10-12T00:01:56.916Z,2.30
2022-10-12T00:02:56.843Z,2.28
2022-10-12T00:03:56.836Z,2.26
2022-10-12T00:04:56.884Z,2.25
2022-10-12T00:05:56.855Z,2.27
2022-10-12T00:06:56.847Z,2.25
2022-10-12T00:07:56.852Z,2.26
2022-10-12T00:08:56.896Z,2.24
2022-10-12T00:09:58.140Z,2.26
2022-10-12T00:10:56.851Z,2.26
2022-10-12T00:11:56.910Z,2.25
2022-10-12T00:12:56.880Z,2.25
2022-10-12T00:13:56.907Z,2.26
2022-10-12T00:14:56.875Z,2.27
2022-10-12T00:15:56.935Z,2.28
2022-10-12T00:16:56.908Z,2.28
2022-10-12T00:17:56.940Z,2.28
2022-10-12T00:18:56.923Z,2.26
2022-10-12T00:19:56.944Z,2.25
2022-10-12T00:20:57.020Z,2.25
2022-10-12T00:21:56.983Z,2.25
2022-10-12T00:22:56.988Z,2.24
2022-10-12T00:23:56.995Z,2.22
2022-10-12T00:24:57.003Z,2.21
2022-10-12T00:25:57.052Z,2.19
2022-10-12T00:26:57.051Z,2.16
2022-10-12T00:27:57.044Z,2.16
2022-10-12T00:28:57.163Z,2.16
2022-10-12T00:29:57.079Z,2.17
2022-10-12T00:30:57.075Z,2.17
2022-10-12T00:31:57.108Z,2.16
2022-10-12T00:32:57.156Z,2.15
2022-10-12T00:33:57.119Z,2.14
2022-10-12T00:34:57.136Z,2.12
2022-10-12T00:35:57.134Z,2.12
2022-10-12T00:36:57.175Z,2.10
2022-10-12T00:37:57.199Z,2.09
2022-10-12T00:38:57.180Z,2.09
2022-10-12T00:39:57.200Z,2.10
2022-10-12T00:40:57.196Z,2.10
2022-10-12T00:41:57.235Z,2.10
2022-10-12T00:42:57.255Z,2.09
2022-10-12T00:43:58.722Z,2.08
2022-10-12T00:44:57.240Z,2.06
2022-10-12T00:45:57.283Z,2.07
2022-10-12T00:46:57.300Z,2.07
2022-10-12T00:47:57.295Z,2.08
2022-10-12T00:48:57.404Z,2.08
2022-10-12T00:49:57.316Z,2.07
2022-10-12T00:50:57.316Z,2.06
2022-10-12T00:51:57.331Z,2.06
2022-10-12T00:52:57.389Z,2.08
2022-10-12T00:53:57.354Z,2.08
2022-10-12T00:54:57.411Z,2.08
2022-10-12T00:55:57.375Z,2.07
2022-10-12T00:56:57.396Z,2.06
2022-10-12T00:57:57.440Z,2.04
2022-10-12T00:58:57.451Z,2.04
2022-10-12T00:59:57.427Z,2.02
2022-10-12T01:00:57.499Z,2.02
2022-10-12T01:01:57.512Z,2.00
2022-10-12T01:02:57.506Z,2.01
2022-10-12T01:03:57.455Z,2.00
2022-10-12T01:04:57.532Z,2.01
2022-10-12T01:05:57.504Z,2.01
2022-10-12T01:06:57.519Z,2.03
2022-10-12T01:07:57.523Z,2.03
2022-10-12T01:08:57.547Z,2.06
2022-10-12T01:09:57.587Z,2.08
2022-10-12T01:10:57.554Z,2.08
2022-10-12T01:11:57.599Z,2.07
2022-10-12T01:12:57.639Z,2.04
2022-10-12T01:13:57.647Z,2.04
2022-10-12T01:14:57.603Z,2.02
2022-10-12T01:15:57.744Z,2.02
2022-10-12T01:16:57.632Z,2.03
2022-10-12T01:17:57.658Z,2.01
2022-10-12T01:18:57.659Z,2.00
2022-10-12T01:19:57.648Z,2.00
2022-10-12T01:20:57.679Z,2.01
2022-10-12T01:21:57.692Z,1.97
2022-10-12T01:22:57.758Z,1.95
2022-10-12T01:23:57.806Z,1.95
2022-10-12T01:24:57.768Z,1.93
2022-10-12T01:25:57.807Z,1.93
2022-10-12T01:26:57.758Z,1.94
2022-10-12T01:27:57.756Z,1.96
2022-10-12T01:28:57.783Z,1.96
2022-10-12T01:29:57.787Z,1.97
2022-10-12T01:30:57.787Z,1.98
2022-10-12T01:31:57.856Z,1.97
2022-10-12T01:32:57.819Z,1.97
2022-10-12T01:33:57.891Z,1.97
2022-10-12T01:34:57.877Z,1.97
2022-10-12T01:35:57.900Z,1.97
2022-10-12T01:36:57.855Z,1.95
2022-10-12T01:37:57.911Z,1.94
2022-10-12T01:38:57.887Z,1.94
2022-10-12T01:39:57.923Z,1.92
2022-10-12T01:40:57.917Z,1.92
2022-10-12T01:41:57.931Z,1.93
2022-10-12T01:42:57.933Z,1.92
2022-10-12T01:43:57.956Z,1.95
2022-10-12T01:44:57.960Z,1.95
2022-10-12T01:45:57.964Z,1.94
2022-10-12T01:46:58.000Z,1.95
2022-10-12T01:47:58.003Z,1.93
2022-10-12T01:48:58.034Z,1.92
2022-10-12T01:49:58.042Z,1.92
2022-10-12T01:50:58.037Z,1.89
2022-10-12T01:51:58.093Z,1.89
2022-10-12T01:52:58.137Z,1.88
2022-10-12T01:53:58.110Z,1.88
2022-10-12T01:54:58.136Z,1.88
2022-10-12T01:55:58.095Z,1.87
2022-10-12T01:56:58.145Z,1.87
2022-10-12T01:57:58.149Z,1.85
2022-10-12T01:58:58.178Z,1.84
2022-10-12T01:59:58.197Z,1.86
2022-10-12T02:00:58.209Z,1.84
2022-10-12T02:01:58.182Z,1.85
2022-10-12T02:02:58.178Z,1.85
2022-10-12T02:03:58.201Z,1.83
2022-10-12T02:04:58.217Z,1.82
2022-10-12T02:05:58.238Z,1.81
2022-10-12T02:06:58.237Z,1.80
2022-10-12T02:07:58.258Z,1.80
2022-10-12T02:08:58.277Z,1.79
2022-10-12T02:09:58.277Z,1.75
2022-10-12T02:10:58.302Z,1.74
2022-10-12T02:11:58.317Z,1.74
2022-10-12T02:12:58.295Z,1.71
2022-10-12T02:13:58.363Z,1.71
2022-10-12T02:14:58.370Z,1.68
2022-10-12T02:15:58.341Z,1.66
2022-10-12T02:16:58.343Z,1.64
2022-10-12T02:17:58.361Z,1.62
2022-10-12T02:18:58.395Z,1.62
2022-10-12T02:19:58.357Z,1.60
2022-10-12T02:20:58.559Z,1.59
2022-10-12T02:21:58.424Z,1.61
2022-10-12T02:22:58.470Z,1.62
2022-10-12T02:23:58.481Z,1.64
2022-10-12T02:24:58.595Z,1.63
2022-10-12T02:25:58.466Z,1.63
2022-10-12T02:26:58.447Z,1.62
2022-10-12T02:27:58.474Z,1.62
2022-10-12T02:28:58.474Z,1.62
2022-10-12T02:29:58.506Z,1.63
2022-10-12T02:30:58.517Z,1.66
2022-10-12T02:31:58.561Z,1.67
2022-10-12T02:32:58.586Z,1.68
2022-10-12T02:33:58.541Z,1.68
2022-10-12T02:34:58.582Z,1.67
2022-10-12T02:35:58.577Z,1.68
2022-10-12T02:36:58.573Z,1.66
2022-10-12T02:37:58.622Z,1.67
2022-10-12T02:38:58.617Z,1.65
2022-10-12T02:39:58.666Z,1.64
2022-10-12T02:40:58.665Z,1.63
2022-10-12T02:41:58.630Z,1.63
2022-10-12T02:43:09.801Z,1.65
2022-10-12T02:43:58.643Z,1.65
2022-10-12T02:44:58.691Z,1.66
2022-10-12T02:45:58.677Z,1.66
2022-10-12T02:46:58.655Z,1.64
2022-10-12T02:47:58.659Z,1.63
2022-10-12T02:48:58.654Z,1.61
2022-10-12T02:49:58.672Z,1.60
2022-10-12T02:50:58.681Z,1.57
2022-10-12T02:51:58.667Z,1.54
2022-10-12T02:52:58.647Z,1.51
2022-10-12T02:53:58.664Z,1.50
2022-10-12T02:54:58.677Z,1.48
2022-10-12T02:55:58.692Z,1.48
2022-10-12T02:56:58.683Z,1.47
2022-10-12T02:57:58.664Z,1.46
2022-10-12T02:58:58.673Z,1.45
2022-10-12T02:59:58.669Z,1.46
2022-10-12T03:00:58.679Z,1.47
2022-10-12T03:01:58.665Z,1.49
2022-10-12T03:02:58.664Z,1.50
2022-10-12T03:03:58.720Z,1.51
2022-10-12T03:04:58.668Z,1.52
2022-10-12T03:05:58.693Z,1.53
2022-10-12T03:06:58.700Z,1.54
2022-10-12T03:07:58.684Z,1.55
2022-10-12T03:08:58.673Z,1.54
2022-10-12T03:09:58.677Z,1.52
2022-10-12T03:10:58.665Z,1.51
2022-10-12T03:11:58.699Z,1.47
2022-10-12T03:12:58.733Z,1.46
2022-10-12T03:13:58.685Z,1.46
2022-10-12T03:14:58.676Z,1.47
2022-10-12T03:15:58.725Z,1.47
2022-10-12T03:16:58.748Z,1.46
2022-10-12T03:17:58.756Z,1.44
2022-10-12T03:18:58.686Z,1.42
2022-10-12T03:19:58.693Z,1.39
2022-10-12T03:20:58.679Z,1.38
2022-10-12T03:21:58.707Z,1.38
2022-10-12T03:22:58.687Z,1.38
2022-10-12T03:23:58.704Z,1.39
2022-10-12T03:24:58.701Z,1.40
2022-10-12T03:25:58.705Z,1.39
2022-10-12T03:26:58.766Z,1.39
2022-10-12T03:27:58.700Z,1.37
2022-10-12T03:28:59.095Z,1.39
2022-10-12T03:29:58.696Z,1.40
2022-10-12T03:30:58.723Z,1.40
2022-10-12T03:31:58.697Z,1.41
2022-10-12T03:32:58.697Z,1.42
2022-10-12T03:33:58.705Z,1.42
2022-10-12T03:34:58.700Z,1.43
2022-10-12T03:35:58.685Z,1.42
2022-10-12T03:36:58.757Z,1.40
2022-10-12T03:37:58.728Z,1.40
2022-10-12T03:38:58.744Z,1.40
2022-10-12T03:39:58.691Z,1.41
2022-10-12T03:41:02.877Z,1.42
2022-10-12T03:41:58.729Z,1.44
2022-10-12T03:42:58.697Z,1.45
2022-10-12T03:43:58.709Z,1.46
2022-10-12T03:44:58.697Z,1.46
2022-10-12T03:45:58.724Z,1.45
2022-10-12T03:46:58.729Z,1.46
2022-10-12T03:48:02.391Z,1.45
2022-10-12T03:48:58.740Z,1.46
2022-10-12T03:49:58.731Z,1.45
2022-10-12T03:50:58.696Z,1.44
2022-10-12T03:51:58.733Z,1.41
2022-10-12T03:52:58.792Z,1.41
2022-10-12T03:53:58.729Z,1.41
2022-10-12T03:54:58.793Z,1.40
2022-10-12T03:55:58.716Z,1.37
2022-10-12T03:56:58.720Z,1.36
2022-10-12T03:57:58.760Z,1.36
2022-10-12T03:58:58.746Z,1.35
2022-10-12T03:59:58.776Z,1.36
2022-10-12T04:00:58.857Z,1.38
2022-10-12T04:01:58.720Z,1.37
2022-10-12T04:02:58.733Z,1.35
2022-10-12T04:03:58.785Z,1.36
2022-10-12T04:04:58.736Z,1.36
2022-10-12T04:05:58.741Z,1.35
2022-10-12T04:06:58.805Z,1.36
2022-10-12T04:07:58.769Z,1.34
2022-10-12T04:08:58.737Z,1.33
2022-10-12T04:09:58.750Z,1.33
2022-10-12T04:10:58.744Z,1.32
2022-10-12T04:11:58.736Z,1.31
2022-10-12T04:12:58.740Z,1.31
2022-10-12T04:13:58.739Z,1.32
2022-10-12T04:14:58.736Z,1.32
2022-10-12T04:15:58.826Z,1.33
2022-10-12T04:16:58.759Z,1.31
2022-10-12T04:17:58.761Z,1.32
2022-10-12T04:18:58.756Z,1.31
2022-10-12T04:19:58.776Z,1.33
2022-10-12T04:20:58.744Z,1.34
2022-10-12T04:21:58.760Z,1.36
2022-10-12T04:22:58.757Z,1.36
2022-10-12T04:23:58.773Z,1.36
2022-10-12T04:24:58.803Z,1.35
2022-10-12T04:25:58.801Z,1.33
2022-10-12T04:26:58.752Z,1.32
2022-10-12T04:27:58.820Z,1.33
2022-10-12T04:28:58.774Z,1.33
2022-10-12T04:29:58.773Z,1.32
2022-10-12T04:30:58.744Z,1.32
2022-10-12T04:31:58.762Z,1.30
2022-10-12T04:32:58.773Z,1.29
2022-10-12T04:33:58.757Z,1.29
2022-10-12T04:34:58.749Z,1.29
2022-10-12T04:35:58.764Z,1.29
2022-10-12T04:36:58.780Z,1.28
2022-10-12T04:37:58.768Z,1.27
2022-10-12T04:39:00.990Z,1.28
2022-10-12T04:39:58.764Z,1.29
2022-10-12T04:40:58.773Z,1.31
2022-10-12T04:41:58.777Z,1.31
2022-10-12T04:42:58.812Z,1.31
2022-10-12T04:43:58.820Z,1.33
2022-10-12T04:44:58.857Z,1.34
2022-10-12T04:45:58.851Z,1.36
2022-10-12T04:46:58.832Z,1.37
2022-10-12T04:47:58.864Z,1.38
2022-10-12T04:48:58.913Z,1.37
2022-10-12T04:49:58.876Z,1.39
2022-10-12T04:50:58.897Z,1.41
2022-10-12T04:51:58.973Z,1.43
2022-10-12T04:52:58.922Z,1.44
2022-10-12T04:53:59.009Z,1.47
2022-10-12T04:54:58.986Z,1.50
2022-10-12T04:55:58.954Z,1.52
2022-10-12T04:56:58.961Z,1.52
2022-10-12T04:57:58.984Z,1.53
2022-10-12T04:58:59.004Z,1.54
2022-10-12T04:59:58.997Z,1.56
2022-10-12T05:00:59.006Z,1.59
2022-10-12T05:01:59.096Z,1.61
2022-10-12T05:02:59.036Z,1.65
2022-10-12T05:03:59.045Z,1.66
2022-10-12T05:04:59.141Z,1.68
2022-10-12T05:05:59.069Z,1.68
2022-10-12T05:06:59.125Z,1.67
2022-10-12T05:07:59.125Z,1.68
2022-10-12T05:08:59.104Z,1.68
2022-10-12T05:09:59.151Z,1.69
2022-10-12T05:10:59.119Z,1.70
2022-10-12T05:11:59.165Z,1.71
2022-10-12T05:12:59.169Z,1.72
2022-10-12T05:13:59.156Z,1.74
2022-10-12T05:14:59.204Z,1.74
2022-10-12T05:15:59.202Z,1.75
2022-10-12T05:16:59.195Z,1.75
2022-10-12T05:17:59.253Z,1.75
2022-10-12T05:18:59.233Z,1.75
2022-10-12T05:19:59.581Z,1.74
2022-10-12T05:20:59.273Z,1.75
2022-10-12T05:21:59.265Z,1.76
2022-10-12T05:22:59.257Z,1.75
2022-10-12T05:23:59.322Z,1.75
2022-10-12T05:24:59.298Z,1.76
2022-10-12T05:25:59.317Z,1.78
2022-10-12T05:26:59.350Z,1.78
2022-10-12T05:27:59.347Z,1.77
2022-10-12T05:28:59.407Z,1.76
2022-10-12T05:29:59.374Z,1.76
2022-10-12T05:30:59.371Z,1.73
2022-10-12T05:31:59.419Z,1.71
2022-10-12T05:32:59.430Z,1.67
2022-10-12T05:33:59.431Z,1.66
2022-10-12T05:34:59.486Z,1.65
2022-10-12T05:35:59.439Z,1.61
2022-10-12T05:36:59.468Z,1.60
2022-10-12T05:37:59.475Z,1.60
2022-10-12T05:38:59.458Z,1.59
2022-10-12T05:39:59.494Z,1.60
2022-10-12T05:41:00.798Z,1.60
2022-10-12T05:41:59.518Z,1.59
2022-10-12T05:42:59.531Z,1.58
2022-10-12T05:43:59.530Z,1.56
2022-10-12T05:44:59.563Z,1.56
2022-10-12T05:45:59.558Z,1.56
2022-10-12T05:46:59.554Z,1.58
2022-10-12T05:47:59.586Z,1.58
2022-10-12T05:48:59.615Z,1.59
2022-10-12T05:49:59.598Z,1.59
2022-10-12T05:50:59.598Z,1.60
2022-10-12T05:51:59.602Z,1.61
2022-10-12T05:52:59.625Z,1.61
2022-10-12T05:53:59.671Z,1.62
2022-10-12T05:54:59.643Z,1.63
2022-10-12T05:55:59.660Z,1.61
2022-10-12T05:56:59.690Z,1.62
2022-10-12T05:57:59.698Z,1.62
2022-10-12T05:58:59.710Z,1.65
2022-10-12T05:59:59.724Z,1.65
2022-10-12T06:00:59.727Z,1.67
2022-10-12T06:02:44.698Z,1.67
2022-10-12T06:03:44.658Z,1.66
2022-10-12T06:04:44.686Z,1.63
2022-10-12T06:05:44.638Z,1.62
2022-10-12T06:06:44.666Z,1.60
2022-10-12T06:07:44.681Z,1.59
2022-10-12T06:08:44.674Z,1.57
2022-10-12T06:09:44.684Z,1.55
2022-10-12T06:11:44.658Z,1.54
2022-10-12T06:12:44.687Z,1.54
2022-10-12T06:13:44.698Z,1.54
2022-10-12T06:14:44.718Z,1.54
2022-10-12T06:16:21.750Z,1.56
2022-10-12T06:17:21.719Z,1.58
2022-10-12T06:18:21.726Z,1.59
2022-10-12T06:19:21.747Z,1.60
2022-10-12T06:20:21.739Z,1.61
2022-10-12T06:21:33.096Z,1.63
2022-10-12T06:22:21.731Z,1.67
2022-10-12T06:23:21.754Z,1.69
2022-10-12T06:24:21.722Z,1.73
2022-10-12T06:25:21.718Z,1.76
2022-10-12T06:26:21.798Z,1.80
2022-10-12T06:27:21.758Z,1.85
2022-10-12T06:28:21.858Z,1.90
2022-10-12T06:29:21.734Z,1.95
2022-10-12T06:30:21.750Z,2.00
2022-10-12T06:31:21.748Z,2.04
2022-10-12T06:32:21.752Z,2.07
2022-10-12T06:33:21.795Z,2.08
2022-10-12T06:34:21.775Z,2.11
2022-10-12T06:35:21.752Z,2.14
2022-10-12T06:36:21.758Z,2.17
2022-10-12T06:37:47.848Z,2.19
2022-10-12T06:38:21.755Z,2.23
2022-10-12T06:39:21.750Z,2.24
2022-10-12T06:40:21.746Z,2.28
2022-10-12T06:41:21.761Z,2.31
2022-10-12T06:42:21.769Z,2.32
2022-10-12T06:43:21.775Z,2.35
2022-10-12T06:44:21.759Z,2.37
2022-10-12T06:45:21.774Z,2.40
2022-10-12T06:46:21.755Z,2.41
2022-10-12T06:47:21.776Z,2.41
2022-10-12T06:48:21.788Z,2.43
2022-10-12T06:49:21.775Z,2.45
2022-10-12T06:50:21.886Z,2.48
2022-10-12T06:51:21.907Z,2.50
2022-10-12T06:52:21.931Z,2.51
2022-10-12T06:53:21.928Z,2.53
2022-10-12T06:54:21.976Z,2.52
2022-10-12T06:55:21.967Z,2.54
2022-10-12T06:56:21.990Z,2.55
2022-10-12T06:57:22.002Z,2.57
2022-10-12T06:58:22.005Z,2.56
2022-10-12T06:59:22.019Z,2.58
2022-10-12T07:00:22.043Z,2.59
2022-10-12T07:01:22.067Z,2.60
2022-10-12T07:02:22.055Z,2.61
2022-10-12T07:03:22.140Z,2.62
2022-10-12T07:04:22.084Z,2.64
2022-10-12T07:05:22.080Z,2.67
2022-10-12T07:06:22.111Z,2.69
2022-10-12T07:07:22.119Z,2.71
2022-10-12T07:08:22.118Z,2.71
2022-10-12T07:09:22.139Z,2.72
2022-10-12T07:10:22.134Z,2.72
2022-10-12T07:11:22.156Z,2.73
2022-10-12T07:12:22.178Z,2.74
2022-10-12T07:13:22.175Z,2.77
2022-10-12T07:14:22.219Z,2.79
2022-10-12T07:15:22.210Z,2.83
2022-10-12T07:16:22.210Z,2.86
2022-10-12T07:17:22.235Z,2.89
2022-10-12T07:18:22.247Z,2.89
2022-10-12T07:19:22.260Z,2.91
2022-10-12T07:20:22.303Z,2.93
2022-10-12T07:21:22.272Z,2.93
2022-10-12T07:22:22.280Z,2.94
2022-10-12T07:23:22.299Z,2.95
2022-10-12T07:24:22.355Z,2.98
2022-10-12T07:25:22.455Z,3.02
2022-10-12T07:26:22.348Z,3.04
2022-10-12T07:27:22.348Z,3.07
2022-10-12T07:28:22.442Z,3.11
2022-10-12T07:29:22.364Z,3.15
2022-10-12T07:30:22.477Z,3.20
2022-10-12T07:31:22.423Z,3.23
2022-10-12T07:32:22.395Z,3.28
2022-10-12T07:33:22.406Z,3.33
2022-10-12T07:34:22.426Z,3.38
2022-10-12T07:35:22.439Z,3.42
2022-10-12T07:36:23.655Z,3.47
2022-10-12T07:37:22.475Z,3.50
2022-10-12T07:38:22.515Z,3.50
2022-10-12T07:39:22.507Z,3.47
2022-10-12T07:40:22.547Z,3.46
2022-10-12T07:41:22.515Z,3.48
2022-10-12T07:42:22.516Z,3.49
2022-10-12T07:43:22.526Z,3.51
2022-10-12T07:44:22.628Z,3.54
2022-10-12T07:45:22.552Z,3.58
2022-10-12T07:46:22.608Z,3.61
2022-10-12T07:47:22.582Z,3.62
2022-10-12T07:48:22.595Z,3.60
2022-10-12T07:49:22.601Z,3.60
2022-10-12T07:50:22.603Z,3.57
2022-10-12T07:51:22.643Z,3.55
2022-10-12T07:52:22.659Z,3.51
2022-10-12T07:53:22.679Z,3.51
2022-10-12T07:54:26.792Z,3.53
2022-10-12T07:55:22.672Z,3.56
2022-10-12T07:56:22.659Z,3.60
2022-10-12T07:57:22.671Z,3.68
2022-10-12T07:58:22.684Z,3.75
2022-10-12T07:59:22.671Z,3.79
2022-10-12T08:00:22.671Z,3.81
2022-10-12T08:01:22.762Z,3.84
2022-10-12T08:02:22.719Z,3.87
2022-10-12T08:03:22.696Z,3.89
2022-10-12T08:04:22.673Z,3.92
2022-10-12T08:05:22.683Z,3.93
2022-10-12T08:06:22.687Z,3.95
2022-10-12T08:07:22.708Z,3.99
2022-10-12T08:08:22.733Z,4.01
2022-10-12T08:09:22.688Z,4.03
2022-10-12T08:10:22.699Z,4.06
2022-10-12T08:11:22.689Z,4.12
2022-10-12T08:12:22.675Z,4.18
2022-10-12T08:13:22.693Z,4.23
2022-10-12T08:14:22.703Z,4.28
2022-10-12T08:15:22.687Z,4.32
2022-10-12T08:16:22.694Z,4.34
2022-10-12T08:17:22.696Z,4.36
2022-10-12T08:18:22.696Z,4.38
2022-10-12T08:19:22.700Z,4.37
2022-10-12T08:20:22.692Z,4.40
2022-10-12T08:21:22.695Z,4.41
2022-10-12T08:22:22.691Z,4.44
2022-10-12T08:23:22.720Z,4.48
2022-10-12T08:24:22.720Z,4.54
2022-10-12T08:25:22.716Z,4.61
2022-10-12T08:26:22.723Z,4.67
2022-10-12T08:27:22.703Z,4.73
2022-10-12T08:28:22.755Z,4.77
2022-10-12T08:29:22.792Z,4.84
2022-10-12T08:30:22.706Z,4.89
2022-10-12T08:31:22.716Z,4.96
2022-10-12T08:32:22.728Z,5.02
2022-10-12T08:33:22.733Z,5.08
2022-10-12T08:34:22.716Z,5.16
2022-10-12T08:35:22.714Z,5.24
2022-10-12T08:36:22.692Z,5.35
2022-10-12T08:37:22.708Z,5.42
2022-10-12T08:38:22.711Z,5.44
2022-10-12T08:39:22.728Z,5.45
2022-10-12T08:40:22.743Z,5.47
2022-10-12T08:41:22.711Z,5.48
2022-10-12T08:42:22.708Z,5.51
2022-10-12T08:43:22.703Z,5.52
2022-10-12T08:44:22.730Z,5.51
2022-10-12T08:45:24.653Z,5.47
2022-10-12T08:46:22.726Z,5.42
2022-10-12T08:47:22.727Z,5.38
2022-10-12T08:48:22.744Z,5.34
2022-10-12T08:49:22.719Z,5.30
2022-10-12T08:50:22.761Z,5.27
2022-10-12T08:51:22.736Z,5.27
2022-10-12T08:52:22.740Z,5.28
2022-10-12T08:53:22.715Z,5.31
2022-10-12T08:54:22.750Z,5.34
2022-10-12T08:55:22.751Z,5.36
2022-10-12T08:56:22.724Z,5.38
2022-10-12T08:57:22.745Z,5.41
2022-10-12T08:58:22.725Z,5.44
2022-10-12T08:59:22.749Z,5.48
2022-10-12T09:00:22.843Z,5.52
2022-10-12T09:01:22.804Z,5.57
2022-10-12T09:02:22.741Z,5.61
2022-10-12T09:03:22.743Z,5.66
2022-10-12T09:04:22.732Z,5.70
2022-10-12T09:05:22.761Z,5.76
2022-10-12T09:06:22.802Z,5.81
2022-10-12T09:07:22.763Z,5.87
2022-10-12T09:08:22.762Z,5.94
2022-10-12T09:09:22.723Z,6.00
2022-10-12T09:10:22.731Z,6.06
2022-10-12T09:11:22.738Z,6.14
2022-10-12T09:12:22.765Z,6.20
2022-10-12T09:13:22.739Z,6.29
2022-10-12T09:14:22.740Z,6.38
2022-10-12T09:15:22.777Z,6.45
2022-10-12T09:16:22.766Z,6.53
2022-10-12T09:17:22.760Z,6.59
2022-10-12T09:18:22.734Z,6.66
2022-10-12T09:19:22.744Z,6.71
2022-10-12T09:20:22.754Z,6.76
2022-10-12T09:21:22.758Z,6.84
2022-10-12T09:22:22.760Z,6.90
2022-10-12T09:23:22.756Z,6.98
2022-10-12T09:24:22.755Z,7.05
2022-10-12T09:25:22.748Z,7.12
2022-10-12T09:26:22.757Z,7.18
2022-10-12T09:27:22.748Z,7.23
2022-10-12T09:28:22.804Z,7.30
2022-10-12T09:29:22.795Z,7.37
2022-10-12T09:30:22.747Z,7.43
2022-10-12T09:31:22.773Z,7.48
2022-10-12T09:32:22.783Z,7.54
2022-10-12T09:33:22.745Z,7.62
2022-10-12T09:34:22.796Z,7.67
2022-10-12T09:35:22.770Z,7.72
2022-10-12T09:36:22.772Z,7.77
2022-10-12T09:37:22.779Z,7.82
2022-10-12T09:38:22.784Z,7.87
2022-10-12T09:39:26.948Z,7.92
2022-10-12T09:40:22.815Z,7.95
2022-10-12T09:41:22.788Z,7.98
2022-10-12T09:42:22.814Z,8.01
2022-10-12T09:43:22.784Z,8.04
2022-10-12T09:44:22.799Z,8.07
2022-10-12T09:45:22.799Z,8.13
2022-10-12T09:46:22.816Z,8.17
2022-10-12T09:47:22.821Z,8.21
2022-10-12T09:48:22.781Z,8.25
2022-10-12T09:49:22.784Z,8.28
2022-10-12T09:50:22.810Z,8.34
2022-10-12T09:51:22.789Z,8.40
2022-10-12T09:52:22.812Z,8.46
2022-10-12T09:53:22.792Z,8.52
2022-10-12T09:54:22.792Z,8.59
2022-10-12T09:55:22.836Z,8.66
2022-10-12T09:56:22.815Z,8.74
2022-10-12T09:57:22.804Z,8.80
2022-10-12T09:58:22.812Z,8.86
2022-10-12T09:59:22.800Z,8.89
2022-10-12T10:00:22.790Z,8.97
2022-10-12T10:01:22.812Z,9.03
2022-10-12T10:02:22.822Z,9.10
2022-10-12T10:03:22.786Z,9.15
2022-10-12T10:04:22.789Z,9.23
2022-10-12T10:05:22.781Z,9.29
2022-10-12T10:06:22.775Z,9.37
2022-10-12T10:07:22.816Z,9.41
2022-10-12T10:08:22.800Z,9.47
2022-10-12T10:09:22.803Z,9.54
2022-10-12T10:10:28.340Z,9.60
2022-10-12T10:11:23.035Z,-144.28
2022-10-12T10:12:23.027Z,-144.28
2022-10-12T10:13:23.068Z,9.75
2022-10-12T10:14:22.997Z,9.75
2022-10-12T10:15:23.009Z,9.75
2022-10-12T10:16:22.993Z,9.77
2022-10-12T10:17:23.040Z,9.78
2022-10-12T10:18:23.053Z,9.81
2022-10-12T10:19:23.041Z,9.84
2022-10-12T10:20:23.024Z,9.87
2022-10-12T10:21:23.029Z,9.89
2022-10-12T10:22:23.057Z,9.95
2022-10-12T10:23:23.064Z,10.02
2022-10-12T10:24:23.066Z,10.08
2022-10-12T10:25:23.052Z,10.14
2022-10-12T10:26:23.036Z,10.22
2022-10-12T10:27:23.076Z,10.30
2022-10-12T10:28:23.077Z,10.40
2022-10-12T10:29:23.052Z,10.50
2022-10-12T10:30:32.605Z,10.61
2022-10-12T10:31:23.042Z,10.72
2022-10-12T10:32:23.043Z,10.80
2022-10-12T10:33:23.053Z,10.91
2022-10-12T10:34:23.060Z,11.01
2022-10-12T10:35:23.076Z,11.07
2022-10-12T10:36:23.053Z,11.17
2022-10-12T10:37:23.044Z,11.27
2022-10-12T10:38:23.073Z,11.38
2022-10-12T10:39:23.058Z,11.53
2022-10-12T10:40:23.082Z,11.64
2022-10-12T10:41:23.068Z,11.76
2022-10-12T10:42:23.048Z,11.88
2022-10-12T10:43:23.076Z,12.01
2022-10-12T10:44:23.076Z,12.11
2022-10-12T10:45:23.076Z,12.21
2022-10-12T10:46:23.070Z,12.32
2022-10-12T10:47:23.060Z,12.42
2022-10-12T10:48:23.096Z,12.53
2022-10-12T10:49:23.077Z,12.64
2022-10-12T10:50:23.068Z,12.76
2022-10-12T10:51:23.087Z,12.87
2022-10-12T10:52:23.053Z,12.98
2022-10-12T10:53:23.101Z,13.12
2022-10-12T10:54:23.087Z,13.25
2022-10-12T10:55:23.079Z,13.35
2022-10-12T10:56:23.078Z,13.48
2022-10-12T10:57:23.075Z,13.52
2022-10-12T10:58:23.076Z,13.64
2022-10-12T10:59:23.054Z,13.74
2022-10-12T11:00:37.756Z,13.80
2022-10-12T11:01:23.133Z,13.86
2022-10-12T11:02:23.112Z,13.88
2022-10-12T11:03:23.151Z,13.97
2022-10-12T11:04:23.053Z,14.05
2022-10-12T11:05:23.077Z,14.10
2022-10-12T11:06:23.068Z,14.16
2022-10-12T11:07:23.100Z,14.24
2022-10-12T11:08:23.083Z,14.37
2022-10-12T11:09:23.108Z,14.53
2022-10-12T11:10:23.085Z,14.55
2022-10-12T11:11:23.105Z,14.55
2022-10-12T11:12:25.303Z,14.53
2022-10-12T11:13:23.093Z,14.58
2022-10-12T11:14:23.142Z,14.68
2022-10-12T11:15:23.111Z,14.78
2022-10-12T11:16:23.085Z,14.87
2022-10-12T11:17:23.101Z,14.98
2022-10-12T11:18:23.125Z,15.07
2022-10-12T11:19:23.104Z,15.16
2022-10-12T11:20:23.090Z,15.28
2022-10-12T11:21:23.109Z,15.43
2022-10-12T11:22:23.122Z,15.58
2022-10-12T11:23:23.127Z,15.76
2022-10-12T11:24:23.105Z,15.93
2022-10-12T11:25:23.097Z,16.10
2022-10-12T11:26:23.116Z,16.22
2022-10-12T11:27:23.122Z,16.33
2022-10-12T11:28:23.142Z,16.46
2022-10-12T11:29:23.207Z,16.54
2022-10-12T11:30:23.134Z,16.61
2022-10-12T11:31:23.121Z,16.54
2022-10-12T11:32:23.153Z,16.61
2022-10-12T11:33:23.121Z,16.59
2022-10-12T11:34:23.105Z,16.65
2022-10-12T11:35:23.109Z,16.81
2022-10-12T11:36:23.129Z,17.03
2022-10-12T11:37:23.149Z,17.29
2022-10-12T11:38:23.132Z,17.63
2022-10-12T11:39:23.651Z,17.89
2022-10-12T11:40:31.042Z,18.15
2022-10-12T11:41:35.717Z,18.28
2022-10-12T11:42:23.176Z,18.49
2022-10-12T11:43:23.105Z,18.75
2022-10-12T11:44:26.495Z,19.07
2022-10-12T11:45:23.128Z,19.46
2022-10-12T11:46:23.150Z,19.75
2022-10-12T11:47:23.161Z,20.07
2022-10-12T11:48:26.956Z,20.28
2022-10-12T11:49:23.169Z,20.47
2022-10-12T11:50:23.160Z,20.48
2022-10-12T11:51:23.145Z,20.47
2022-10-12T11:52:27.781Z,20.48
2022-10-12T11:53:23.173Z,20.40
2022-10-12T11:54:23.149Z,20.44
2022-10-12T11:55:23.149Z,20.48
2022-10-12T11:56:23.141Z,20.51
2022-10-12T11:57:23.141Z,20.58
2022-10-12T11:58:36.308Z,20.69
2022-10-12T11:59:23.165Z,20.70
2022-10-12T12:00:23.145Z,20.77
2022-10-12T12:01:23.148Z,20.78
2022-10-12T12:02:23.130Z,20.46
2022-10-12T12:03:23.171Z,20.42
2022-10-12T12:04:41.339Z,20.34
2022-10-12T12:05:23.158Z,20.26
2022-10-12T12:06:23.150Z,20.39
2022-10-12T12:07:23.175Z,20.48
2022-10-12T12:08:23.167Z,20.41
2022-10-12T12:09:23.166Z,20.25
2022-10-12T12:10:23.149Z,19.98
2022-10-12T12:11:23.163Z,19.62
2022-10-12T12:12:23.155Z,19.14
2022-10-12T12:13:23.250Z,18.70
2022-10-12T12:14:23.170Z,18.33
2022-10-12T12:15:23.161Z,18.15
2022-10-12T12:16:41.997Z,18.19
2022-10-12T12:17:42.001Z,18.23
2022-10-12T12:18:41.993Z,18.21
2022-10-12T12:19:42.451Z,18.24
2022-10-12T12:20:41.994Z,18.28
2022-10-12T12:21:41.998Z,18.34
2022-10-12T12:22:42.010Z,18.37
2022-10-12T12:23:42.013Z,18.25
2022-10-12T12:24:42.017Z,17.97
2022-10-12T12:25:42.037Z,17.73
2022-10-12T12:26:42.014Z,17.64
2022-10-12T12:27:42.013Z,17.58
2022-10-12T12:28:42.116Z,17.58
2022-10-12T12:29:42.264Z,17.66
2022-10-12T12:30:42.024Z,17.75
2022-10-12T12:31:42.038Z,17.76
2022-10-12T12:32:42.013Z,17.77
2022-10-12T12:33:42.039Z,17.76
2022-10-12T12:34:42.313Z,17.69
2022-10-12T12:35:42.042Z,17.62
2022-10-12T12:36:42.034Z,17.60
2022-10-12T12:37:42.029Z,17.48
2022-10-12T12:38:42.029Z,17.42
2022-10-12T12:39:42.340Z,17.39
2022-10-12T12:40:42.065Z,17.38
2022-10-12T12:41:42.025Z,17.38
2022-10-12T12:42:42.037Z,17.42
2022-10-12T12:43:42.033Z,17.49
2022-10-12T12:44:42.037Z,17.54
2022-10-12T12:45:42.053Z,17.61
2022-10-12T12:46:42.042Z,17.66
2022-10-12T12:47:46.319Z,17.75
2022-10-12T12:48:42.046Z,17.90
2022-10-12T12:49:42.365Z,18.17
2022-10-12T12:50:42.042Z,18.61
2022-10-12T12:51:42.177Z,19.11
2022-10-12T12:52:42.201Z,19.50
2022-10-12T12:53:42.194Z,19.84
2022-10-12T12:54:49.065Z,20.07
2022-10-12T12:55:42.249Z,20.22
2022-10-12T12:56:42.207Z,20.31
2022-10-12T12:57:42.229Z,20.38
2022-10-12T12:58:42.231Z,20.34
2022-10-12T12:59:42.262Z,20.27
2022-10-12T13:00:42.399Z,20.11
2022-10-12T13:01:42.315Z,19.93
2022-10-12T13:02:42.270Z,19.82
2022-10-12T13:03:42.296Z,19.75
2022-10-12T13:04:42.332Z,19.69
2022-10-12T13:05:42.322Z,19.65
2022-10-12T13:06:42.326Z,19.60
2022-10-12T13:07:42.342Z,19.63
2022-10-12T13:08:42.378Z,19.72
2022-10-12T13:09:42.358Z,19.82
2022-10-12T13:10:42.378Z,19.99
2022-10-12T13:11:42.383Z,20.26
2022-10-12T13:12:42.498Z,20.46
2022-10-12T13:13:42.422Z,20.57
2022-10-12T13:14:42.421Z,20.60
2022-10-12T13:15:42.437Z,20.65